Time;durP1;ratioP1;P1;durP2;ratioP2;P2;SDS_P1;SDS_P2;PMS_P1;PMS_P2;Temp;Humidity;BMP_temperature;BMP_pressure;BME280_temperature;BME280_humidity;BME280_pressure;Samples;Min_cycle;Max_cycle;Signal;HPM_P1;HPM_P2
2023/03/21 00:01:18;;;;;;;5.33;2.10;;;10.60;90.30;;;;;;4908251;29;20219;-72
2023/03/21 00:03:45;;;;;;;6.27;3.00;;;10.60;90.30;;;;;;4910196;29;20575;-73
2023/03/21 00:06:12;;;;;;;4.77;2.60;;;10.60;90.30;;;;;;4913834;29;20601;-74
2023/03/21 00:08:39;;;;;;;6.27;1.90;;;10.60;90.40;;;;;;4905785;29;20439;-72
2023/03/21 00:11:07;;;;;;;4.03;2.30;;;10.50;90.40;;;;;;4904017;29;20887;-73
2023/03/21 00:13:37;;;;;;;5.07;2.50;;;10.50;90.40;;;;;;4899310;29;20463;-72
2023/03/21 00:16:15;;;;;;;5.80;2.97;;;10.60;90.50;;;;;;4901118;29;20530;-72
2023/03/21 00:18:51;;;;;;;5.27;2.93;;;10.60;90.60;;;;;;4904311;29;20430;-72
2023/03/21 00:21:27;;;;;;;4.70;2.50;;;10.50;90.60;;;;;;4903905;29;20447;-72
2023/03/21 00:23:53;;;;;;;4.73;2.80;;;10.50;90.70;;;;;;4904622;29;20415;-73
2023/03/21 00:26:21;;;;;;;4.27;2.50;;;10.50;90.90;;;;;;4904156;29;20514;-73
2023/03/21 00:28:47;;;;;;;4.07;2.30;;;10.50;91.00;;;;;;4903882;29;20542;-73
2023/03/21 00:31:13;;;;;;;2.60;1.40;;;10.60;91.10;;;;;;4904882;29;20430;-72
2023/03/21 00:33:39;;;;;;;3.07;2.50;;;10.50;91.10;;;;;;4903036;29;20427;-74
2023/03/21 00:36:06;;;;;;;4.00;2.00;;;10.50;91.10;;;;;;4904927;29;20167;-72
2023/03/21 00:38:33;;;;;;;8.40;3.33;;;10.50;91.10;;;;;;4911495;29;20167;-76
2023/03/21 00:40:58;;;;;;;4.77;2.80;;;10.50;91.10;;;;;;4905621;29;20447;-71
2023/03/21 00:43:28;;;;;;;2.50;2.07;;;10.60;91.30;;;;;;4903690;29;20566;-72
2023/03/21 00:45:56;;;;;;;4.77;2.30;;;10.50;91.30;;;;;;4904626;29;20423;-73
2023/03/21 00:48:21;;;;;;;4.73;2.30;;;10.50;91.40;;;;;;4890598;29;20442;-73
2023/03/21 00:50:47;;;;;;;2.20;1.87;;;10.50;91.40;;;;;;4903126;29;20451;-73
2023/03/21 00:53:14;;;;;;;2.70;2.17;;;10.50;91.50;;;;;;4902582;29;20482;-73
2023/03/21 00:55:40;;;;;;;3.33;1.93;;;10.50;91.60;;;;;;4903130;29;20468;-74
2023/03/21 00:58:06;;;;;;;3.00;1.87;;;10.50;91.70;;;;;;4903402;29;20451;-72
2023/03/21 01:00:35;;;;;;;3.30;2.00;;;10.50;91.80;;;;;;4902001;29;20474;-73
2023/03/21 01:03:06;;;;;;;4.90;2.17;;;10.50;92.00;;;;;;4906470;29;20199;-72
2023/03/21 01:08:19;;;;;;;3.87;2.87;;;10.50;92.00;;;;;;4922949;29;20495;-71
2023/03/21 01:10:47;;;;;;;4.53;3.27;;;10.50;92.00;;;;;;4907051;29;20440;-73
2023/03/21 01:13:14;;;;;;;5.23;2.57;;;10.50;92.10;;;;;;4909708;29;20423;-73
2023/03/21 01:15:46;;;;;;;3.50;2.47;;;10.50;92.20;;;;;;4906034;29;20870;-72
2023/03/21 01:18:13;;;;;;;4.10;2.60;;;10.50;92.30;;;;;;4909652;29;20420;-71
2023/03/21 01:20:41;;;;;;;3.40;1.83;;;10.50;92.50;;;;;;4910218;29;20436;-72
2023/03/21 01:23:07;;;;;;;4.63;2.60;;;10.50;92.60;;;;;;4910390;29;20515;-74
2023/03/21 01:25:33;;;;;;;4.17;3.13;;;10.50;92.80;;;;;;4907767;29;20518;-73
2023/03/21 01:27:59;;;;;;;6.47;3.00;;;10.50;92.80;;;;;;4908122;29;20480;-74
2023/03/21 01:30:25;;;;;;;9.00;4.30;;;10.50;92.90;;;;;;4911122;29;20456;-75
2023/03/21 01:32:52;;;;;;;4.70;2.87;;;10.50;92.90;;;;;;4910277;29;20211;-72
2023/03/21 01:35:18;;;;;;;4.97;2.77;;;10.50;93.00;;;;;;4907129;29;20426;-72
2023/03/21 01:37:43;;;;;;;3.60;2.40;;;10.40;93.10;;;;;;4907066;29;20458;-71
2023/03/21 01:40:18;;;;;;;4.07;2.10;;;10.40;93.30;;;;;;4906859;29;20282;-72
2023/03/21 01:42:50;;;;;;;3.70;2.50;;;10.40;93.30;;;;;;4897602;29;20201;-73
2023/03/21 01:45:56;;;;;;;4.03;2.47;;;10.40;93.30;;;;;;4904269;29;20431;-72
2023/03/21 01:48:27;;;;;;;4.80;2.90;;;10.40;93.50;;;;;;4891453;29;20432;-70
2023/03/21 01:50:58;;;;;;;3.87;2.83;;;10.40;93.50;;;;;;4907467;29;20424;-73
2023/03/21 01:53:39;;;;;;;4.47;3.17;;;10.40;93.70;;;;;;4906399;29;20455;-73
2023/03/21 01:56:16;;;;;;;4.97;3.17;;;10.40;93.70;;;;;;4907131;29;20419;-73
2023/03/21 01:59:02;;;;;;;4.73;2.97;;;10.40;93.90;;;;;;4907947;29;20617;-72
2023/03/21 02:01:58;;;;;;;3.70;2.93;;;10.40;93.90;;;;;;4884522;29;20944;-71
2023/03/21 02:04:27;;;;;;;9.00;3.57;;;10.40;94.10;;;;;;4890463;29;20463;-74
2023/03/21 02:07:35;;;;;;;3.90;2.90;;;10.40;94.20;;;;;;4902638;29;20639;-73
2023/03/21 02:10:09;;;;;;;5.87;2.83;;;10.40;94.30;;;;;;4907363;29;20499;-74
2023/03/21 02:12:37;;;;;;;6.93;3.67;;;10.40;94.50;;;;;;4907524;29;20408;-73
2023/03/21 02:15:06;;;;;;;8.37;3.20;;;10.40;94.50;;;;;;4905888;29;20440;-73
2023/03/21 02:17:59;;;;;;;5.70;4.00;;;10.40;94.50;;;;;;4902029;29;20427;-73
2023/03/21 02:21:10;;;;;;;7.80;3.37;;;10.40;94.60;;;;;;4914572;29;20455;-76
2023/03/21 02:23:56;;;;;;;6.70;3.30;;;10.30;94.60;;;;;;4906514;29;20423;-73
2023/03/21 02:27:02;;;;;;;6.63;3.13;;;10.30;94.80;;;;;;4911194;29;20790;-74
2023/03/21 02:29:58;;;;;;;5.30;3.47;;;10.30;94.90;;;;;;4895811;29;20483;-72
2023/03/21 02:32:43;;;;;;;6.00;4.37;;;10.20;95.10;;;;;;4901918;29;20423;-72
2023/03/21 02:35:39;;;;;;;7.10;4.27;;;10.20;95.10;;;;;;4902966;29;20435;-74
2023/03/21 02:38:42;;;;;;;6.73;3.00;;;10.30;95.30;;;;;;4903966;29;20423;-73
2023/03/21 02:41:18;;;;;;;5.67;3.20;;;10.20;95.70;;;;;;4903087;29;20506;-72
2023/03/21 02:43:58;;;;;;;4.43;2.50;;;10.20;95.60;;;;;;4898596;29;20465;-72
2023/03/21 02:46:50;;;;;;;6.07;2.87;;;10.20;95.90;;;;;;4901790;29;20455;-71
2023/03/21 02:49:23;;;;;;;3.97;2.20;;;10.10;96.10;;;;;;4900885;29;20427;-73
2023/03/21 02:51:50;;;;;;;3.80;3.00;;;10.20;96.30;;;;;;4900359;29;20431;-74
2023/03/21 02:54:20;;;;;;;5.37;2.97;;;10.10;96.40;;;;;;4900685;29;20423;-72
2023/03/21 02:56:47;;;;;;;3.10;2.07;;;10.20;96.60;;;;;;4900327;29;20438;-73
2023/03/21 02:59:16;;;;;;;6.87;3.30;;;10.20;96.70;;;;;;4890107;29;20440;-74
2023/03/21 03:01:42;;;;;;;3.20;2.17;;;10.10;96.60;;;;;;4886617;29;20557;-72
2023/03/21 03:04:27;;;;;;;4.37;2.60;;;10.20;96.70;;;;;;4900509;29;20691;-73
2023/03/21 03:07:12;;;;;;;5.47;2.10;;;10.20;96.70;;;;;;4900224;29;21002;-73
2023/03/21 03:09:46;;;;;;;9.20;4.17;;;10.20;96.70;;;;;;4900590;29;20506;-72
2023/03/21 03:12:31;;;;;;;6.47;3.63;;;10.20;96.70;;;;;;4901860;29;20764;-71
2023/03/21 03:15:05;;;;;;;7.63;2.67;;;10.20;96.70;;;;;;4885769;29;20520;-72
2023/03/21 03:18:12;;;;;;;6.93;3.10;;;10.20;96.70;;;;;;4901198;29;20426;-74
2023/03/21 03:21:04;;;;;;;7.87;3.57;;;10.30;96.60;;;;;;4899776;29;20459;-73
2023/03/21 03:23:43;;;;;;;5.33;2.30;;;10.20;96.70;;;;;;4900961;29;20419;-72
2023/03/21 03:26:33;;;;;;;3.43;2.67;;;10.10;96.70;;;;;;4900855;29;20442;-73
2023/03/21 03:29:04;;;;;;;3.43;2.60;;;10.10;96.90;;;;;;4899918;29;20446;-73
2023/03/21 03:31:40;;;;;;;8.53;4.33;;;10.00;97.00;;;;;;4900580;29;20662;-72
2023/03/21 03:34:11;;;;;;;8.33;4.60;;;10.00;97.30;;;;;;4900891;29;20427;-73
2023/03/21 03:36:43;;;;;;;7.27;3.23;;;9.90;98.10;;;;;;4901084;29;20486;-72
2023/03/21 03:39:14;;;;;;;5.70;3.43;;;9.80;98.40;;;;;;4901377;29;20423;-73
2023/03/21 03:41:56;;;;;;;5.60;3.37;;;9.70;98.80;;;;;;4901684;29;20918;-72
2023/03/21 03:44:21;;;;;;;7.57;4.23;;;9.60;99.20;;;;;;4900314;29;20435;-72
2023/03/21 03:47:16;;;;;;;6.17;3.40;;;9.60;99.50;;;;;;4899209;29;20808;-72
2023/03/21 03:49:49;;;;;;;4.53;2.70;;;9.70;99.80;;;;;;4898853;29;20444;-72
2023/03/21 03:52:25;;;;;;;4.60;2.70;;;9.70;99.90;;;;;;4900809;29;20958;-73
2023/03/21 03:54:58;;;;;;;7.80;3.57;;;9.70;99.90;;;;;;4899704;29;20426;-72
2023/03/21 03:57:25;;;;;;;9.30;3.00;;;9.70;99.90;;;;;;4900049;29;20451;-74
2023/03/21 03:59:52;;;;;;;5.90;3.47;;;9.80;99.90;;;;;;4898651;29;20478;-74
2023/03/21 04:02:41;;;;;;;9.70;3.80;;;9.80;99.80;;;;;;4897916;29;20434;-71
2023/03/21 04:05:07;;;;;;;7.70;3.40;;;9.90;99.90;;;;;;4899615;29;20419;-73
2023/03/21 04:07:32;;;;;;;8.23;3.13;;;9.90;99.90;;;;;;4899405;29;20734;-71
2023/03/21 04:10:00;;;;;;;4.27;3.23;;;9.90;99.90;;;;;;4899201;29;20925;-72
2023/03/21 04:12:26;;;;;;;4.07;2.90;;;9.90;99.90;;;;;;4899680;29;20848;-73
2023/03/21 04:15:09;;;;;;;8.43;4.03;;;9.80;99.90;;;;;;4897721;29;20420;-72
2023/03/21 04:17:38;;;;;;;8.30;3.90;;;9.90;99.90;;;;;;4899302;29;20511;-72
2023/03/21 04:20:05;;;;;;;6.23;2.77;;;9.90;99.90;;;;;;4900438;29;20451;-71
2023/03/21 04:22:32;;;;;;;8.00;3.20;;;9.90;99.90;;;;;;4900735;29;20835;-71
2023/03/21 04:25:00;;;;;;;5.40;2.83;;;10.00;99.70;;;;;;4899257;29;20458;-73
2023/03/21 04:27:27;;;;;;;3.83;2.27;;;9.90;99.90;;;;;;4899293;29;20455;-71
2023/03/21 04:30:23;;;;;;;4.53;2.60;;;10.00;99.80;;;;;;4902031;29;20455;-73
2023/03/21 04:33:03;;;;;;;6.13;3.70;;;9.90;99.90;;;;;;4898995;29;20439;-74
2023/03/21 04:35:33;;;;;;;9.00;4.80;;;10.00;99.90;;;;;;4899350;29;20412;-72
2023/03/21 04:38:02;;;;;;;5.27;2.80;;;10.00;99.70;;;;;;4904127;29;20423;-72
2023/03/21 04:40:28;;;;;;;6.60;3.77;;;10.00;99.50;;;;;;4899337;29;20461;-71
2023/03/21 04:42:54;;;;;;;4.07;2.47;;;10.00;99.60;;;;;;4899418;29;20191;-74
2023/03/21 04:45:20;;;;;;;8.53;2.30;;;10.00;99.60;;;;;;4894127;29;20736;-73
2023/03/21 04:47:46;;;;;;;5.73;2.87;;;10.00;99.70;;;;;;4899117;29;20203;-71
2023/03/21 04:50:12;;;;;;;3.83;2.37;;;10.00;99.80;;;;;;4901634;29;20206;-73
2023/03/21 04:52:39;;;;;;;5.30;3.33;;;10.00;99.80;;;;;;4902524;29;20460;-72
2023/03/21 04:55:08;;;;;;;6.97;3.03;;;10.00;99.90;;;;;;4903789;29;20426;-71
2023/03/21 04:57:35;;;;;;;8.63;3.27;;;10.00;99.90;;;;;;4903927;29;20247;-74
2023/03/21 05:00:00;;;;;;;5.17;2.87;;;10.00;99.90;;;;;;4901408;29;21006;-72
2023/03/21 05:02:26;;;;;;;5.50;2.90;;;10.00;99.90;;;;;;4907292;29;20423;-72
2023/03/21 05:04:56;;;;;;;6.73;3.13;;;10.00;99.90;;;;;;4911661;29;20214;-73
2023/03/21 05:07:25;;;;;;;7.97;3.53;;;10.00;99.90;;;;;;4898886;29;20256;-74
2023/03/21 05:09:52;;;;;;;7.80;3.10;;;10.00;99.90;;;;;;4913669;29;20432;-73
2023/03/21 05:12:29;;;;;;;5.20;2.83;;;10.00;99.90;;;;;;4915141;29;20446;-72
2023/03/21 05:14:55;;;;;;;4.10;2.17;;;10.00;99.90;;;;;;4906141;29;20194;-75
2023/03/21 05:17:27;;;;;;;6.50;3.03;;;10.00;99.90;;;;;;4916018;29;20422;-73
2023/03/21 05:19:55;;;;;;;6.93;3.83;;;10.00;99.90;;;;;;4923778;29;20491;-77
2023/03/21 05:22:23;;;;;;;10.90;4.60;;;10.00;99.90;;;;;;4914727;29;20689;-72
2023/03/21 05:24:50;;;;;;;5.40;3.17;;;10.10;99.90;;;;;;4896427;29;20420;-73
2023/03/21 05:27:35;;;;;;;4.60;3.20;;;10.10;99.90;;;;;;4912227;29;20466;-73
2023/03/21 05:30:14;;;;;;;8.70;4.53;;;10.00;99.80;;;;;;4881688;29;20472;-75
2023/03/21 05:32:40;;;;;;;6.57;3.93;;;10.10;99.90;;;;;;4886663;29;20464;-72
2023/03/21 05:35:09;;;;;;;9.77;3.10;;;10.10;99.90;;;;;;4913051;29;20420;-73
2023/03/21 05:37:35;;;;;;;4.73;3.13;;;10.10;99.90;;;;;;4915365;29;20478;-76
2023/03/21 05:40:04;;;;;;;3.43;2.40;;;10.10;99.90;;;;;;4918331;29;20230;-76
2023/03/21 05:42:36;;;;;;;4.80;3.07;;;10.10;99.90;;;;;;4904302;29;20176;-76
2023/03/21 05:45:22;;;;;;;5.50;2.70;;;10.10;99.90;;;;;;4885511;29;20421;-74
2023/03/21 05:47:50;;;;;;;7.60;3.33;;;10.00;99.90;;;;;;4887655;29;20468;-75
2023/03/21 05:50:16;;;;;;;7.87;4.53;;;10.10;99.90;;;;;;5107623;23;20951;-76
2023/03/21 05:52:49;;;;;;;5.27;3.20;;;10.10;99.90;;;;;;4916690;29;20434;-73
2023/03/21 05:55:15;;;;;;;9.33;3.90;;;10.20;99.90;;;;;;4900766;29;20447;-75
2023/03/21 05:57:47;;;;;;;7.07;3.80;;;10.10;99.90;;;;;;4902504;29;20211;-75
2023/03/21 06:00:23;;;;;;;7.53;2.63;;;10.20;99.90;;;;;;4906062;29;20443;-75
2023/03/21 06:03:05;;;;;;;4.20;3.60;;;10.20;99.90;;;;;;4865799;29;20419;-73
2023/03/21 06:05:51;;;;;;;4.90;2.37;;;10.20;99.90;;;;;;4894529;29;20416;-73
2023/03/21 06:08:22;;;;;;;7.03;3.87;;;10.20;99.90;;;;;;4892867;29;20528;-72
2023/03/21 06:10:49;;;;;;;7.33;4.53;;;10.20;99.90;;;;;;4877932;29;20509;-73
2023/03/21 06:13:17;;;;;;;7.17;4.30;;;10.30;99.90;;;;;;4878938;29;20439;-73
2023/03/21 06:15:43;;;;;;;6.70;3.93;;;10.30;99.80;;;;;;4863056;29;20444;-72
2023/03/21 06:18:14;;;;;;;10.57;4.50;;;10.30;99.70;;;;;;4896231;29;20580;-73
2023/03/21 06:20:53;;;;;;;5.50;3.10;;;10.40;99.60;;;;;;4895955;29;20463;-74
2023/03/21 06:23:19;;;;;;;5.80;2.87;;;10.40;99.50;;;;;;4893291;29;20416;-74
2023/03/21 06:25:48;;;;;;;4.53;2.43;;;10.40;99.60;;;;;;4894541;29;20435;-76
2023/03/21 06:28:15;;;;;;;3.97;2.67;;;10.40;99.60;;;;;;4892567;29;20474;-74
2023/03/21 06:30:40;;;;;;;5.70;2.90;;;10.40;99.60;;;;;;4893283;29;20448;-73
2023/03/21 06:33:22;;;;;;;4.23;3.03;;;10.50;99.60;;;;;;4880532;29;20180;-74
2023/03/21 06:35:53;;;;;;;4.40;2.70;;;10.40;99.50;;;;;;4878428;29;20464;-74
2023/03/21 06:38:19;;;;;;;7.23;4.30;;;10.50;99.50;;;;;;4880895;29;20408;-74
2023/03/21 06:40:47;;;;;;;4.77;3.33;;;10.50;99.40;;;;;;4885843;29;20440;-75
2023/03/21 06:43:13;;;;;;;5.57;3.20;;;10.50;99.40;;;;;;4880779;29;20408;-74
2023/03/21 06:45:39;;;;;;;6.30;3.60;;;10.50;99.30;;;;;;4896523;29;20438;-73
2023/03/21 06:48:05;;;;;;;5.37;2.80;;;10.60;99.30;;;;;;4892844;29;20476;-75
2023/03/21 06:50:43;;;;;;;7.40;3.43;;;10.60;99.30;;;;;;4894578;29;20231;-77
2023/03/21 06:53:09;;;;;;;6.50;4.67;;;10.60;99.20;;;;;;4893994;29;20397;-73
2023/03/21 06:55:56;;;;;;;11.70;5.67;;;10.70;99.00;;;;;;4881468;29;20189;-73
2023/03/21 06:58:23;;;;;;;6.83;4.00;;;10.70;98.90;;;;;;4860874;29;20437;-74
2023/03/21 07:00:49;;;;;;;10.70;4.40;;;10.70;99.00;;;;;;4893060;29;20437;-74
2023/03/21 07:03:15;;;;;;;11.60;5.43;;;10.80;99.20;;;;;;4894402;29;20413;-76
2023/03/21 07:05:42;;;;;;;7.60;3.60;;;10.80;99.20;;;;;;4893395;29;20209;-75
2023/03/21 07:08:10;;;;;;;6.80;2.60;;;10.80;99.30;;;;;;4891566;29;20557;-75
2023/03/21 07:10:59;;;;;;;13.67;5.90;;;10.80;99.50;;;;;;4896220;29;20215;-76
2023/03/21 07:13:25;;;;;;;17.67;6.00;;;10.90;99.90;;;;;;4895252;29;20468;-73
2023/03/21 07:15:54;;;;;;;8.13;4.47;;;10.90;99.90;;;;;;4877725;29;20475;-75
2023/03/21 07:18:19;;;;;;;6.43;3.60;;;11.00;99.90;;;;;;4878074;29;20440;-76
2023/03/21 07:20:49;;;;;;;13.43;5.73;;;10.90;99.90;;;;;;4892627;29;20550;-76
2023/03/21 07:23:20;;;;;;;9.73;4.87;;;10.90;99.90;;;;;;4893183;29;20187;-74
2023/03/21 07:25:50;;;;;;;11.23;7.07;;;10.90;99.90;;;;;;4910147;29;20428;-73
2023/03/21 07:28:17;;;;;;;10.27;6.30;;;10.90;99.90;;;;;;4901423;29;20468;-73
2023/03/21 07:30:43;;;;;;;10.83;5.80;;;10.70;99.90;;;;;;4875003;29;20900;-74
2023/03/21 07:33:10;;;;;;;8.67;5.00;;;10.60;99.90;;;;;;4891438;29;20503;-74
2023/03/21 07:35:36;;;;;;;7.20;5.23;;;10.60;99.90;;;;;;4874564;29;20885;-73
2023/03/21 07:38:04;;;;;;;8.30;4.90;;;10.50;99.90;;;;;;4889245;29;20442;-74
2023/03/21 07:40:30;;;;;;;8.20;5.03;;;10.50;99.90;;;;;;4889082;29;20319;-74
2023/03/21 07:42:56;;;;;;;7.33;4.70;;;10.50;99.90;;;;;;4909264;29;20493;-72
2023/03/21 07:45:31;;;;;;;9.57;4.47;;;10.40;99.90;;;;;;4886221;29;20434;-75
2023/03/21 07:47:57;;;;;;;7.90;5.27;;;10.40;99.90;;;;;;4891331;29;20459;-73
2023/03/21 07:50:23;;;;;;;11.20;4.70;;;10.40;99.90;;;;;;4875050;29;20322;-75
2023/03/21 07:52:48;;;;;;;8.83;6.40;;;10.30;99.90;;;;;;4877732;29;20286;-75
2023/03/21 07:55:16;;;;;;;8.63;4.73;;;10.30;99.90;;;;;;4891523;29;20188;-76
2023/03/21 07:57:42;;;;;;;11.13;4.70;;;10.30;99.90;;;;;;4889650;29;20536;-70
2023/03/21 08:00:09;;;;;;;11.87;4.90;;;10.30;99.90;;;;;;4888425;29;20440;-74
2023/03/21 08:02:41;;;;;;;8.27;4.80;;;10.20;99.90;;;;;;4874343;29;20737;-74
2023/03/21 08:05:07;;;;;;;4.30;3.90;;;10.30;99.90;;;;;;4891596;29;20428;-76
2023/03/21 08:07:34;;;;;;;25.57;8.10;;;10.20;99.90;;;;;;4885678;29;20218;-77
2023/03/21 08:10:04;;;;;;;10.20;6.40;;;10.30;99.90;;;;;;4899505;29;20439;-78
2023/03/21 08:12:30;;;;;;;8.03;5.33;;;10.20;99.90;;;;;;4914711;29;20453;-78
2023/03/21 08:15:16;;;;;;;6.90;4.20;;;10.10;99.90;;;;;;4885444;29;20424;-78
2023/03/21 08:20:50;;;;;;;8.90;5.30;;;10.20;99.90;;;;;;5417890;23;20490;-77
2023/03/21 08:24:28;;;;;;;10.47;6.00;;;10.20;99.90;;;;;;4950858;29;20450;-76
2023/03/21 08:27:54;;;;;;;12.40;5.77;;;10.20;99.90;;;;;;4931919;29;20509;-77
2023/03/21 08:31:20;;;;;;;13.70;6.13;;;10.10;99.90;;;;;;4900316;29;20434;-77
2023/03/21 08:34:45;;;;;;;8.20;4.90;;;10.20;99.90;;;;;;4807431;29;20436;-78
2023/03/21 08:37:50;;;;;;;6.23;4.40;;;10.20;99.90;;;;;;4738121;30;20428;-77
2023/03/21 08:40:37;;;;;;;7.70;3.83;;;10.30;99.90;;;;;;4719376;30;20456;-77
2023/03/21 08:44:05;;;;;;;;;;;;;;;;;;;;;
2023/03/21 08:46:53;;;;;;;7.63;4.93;;;10.40;99.90;;;;;;4683461;30;20506;-77
2023/03/21 08:49:36;;;;;;;7.90;5.60;;;10.30;99.90;;;;;;4654544;30;20478;-78
2023/03/21 08:52:12;;;;;;;10.67;6.00;;;10.40;99.90;;;;;;4669932;30;20432;-78
2023/03/21 08:55:06;;;;;;;8.27;5.30;;;10.40;99.90;;;;;;4666730;30;20490;-77
2023/03/21 08:58:12;;;;;;;9.63;5.87;;;10.30;99.90;;;;;;4650077;30;20518;-76
2023/03/21 09:01:19;;;;;;;7.00;4.30;;;10.30;99.90;;;;;;4674678;30;20471;-78
2023/03/21 09:04:11;;;;;;;10.10;5.77;;;10.30;99.90;;;;;;4668390;30;20426;-77
2023/03/21 09:07:08;;;;;;;8.40;4.40;;;10.30;99.90;;;;;;4718321;30;20468;-77
2023/03/21 09:10:52;;;;;;;14.70;6.07;;;10.40;99.90;;;;;;4751991;30;20807;-79
2023/03/21 09:14:16;;;;;;;15.07;7.13;;;10.40;99.90;;;;;;4749481;30;20412;-78
2023/03/21 09:17:19;;;;;;;12.63;6.33;;;10.40;99.90;;;;;;4735781;30;20515;-77
2023/03/21 09:20:50;;;;;;;7.40;5.47;;;10.40;99.90;;;;;;4754670;30;20476;-79
2023/03/21 09:27:46;;;;;;;10.63;6.20;;;10.40;99.90;;;;;;4754023;30;20495;-77
2023/03/21 09:30:43;;;;;;;9.63;5.77;;;10.60;99.90;;;;;;4766514;30;20467;-79
2023/03/21 09:33:20;;;;;;;9.90;5.97;;;10.60;99.90;;;;;;4753434;30;20471;-77
2023/03/21 09:35:59;;;;;;;8.97;6.00;;;10.80;99.90;;;;;;4753695;30;20826;-77
2023/03/21 09:38:35;;;;;;;13.33;6.53;;;10.90;99.90;;;;;;4762841;30;20442;-77
2023/03/21 09:41:17;;;;;;;8.93;5.57;;;11.10;99.90;;;;;;4752010;30;20468;-74
2023/03/21 09:44:04;;;;;;;14.70;7.93;;;11.10;99.90;;;;;;4751166;30;20443;-72
2023/03/21 09:46:41;;;;;;;6.73;5.03;;;11.20;99.90;;;;;;4767310;30;20940;-71
2023/03/21 09:49:24;;;;;;;8.97;5.30;;;11.10;99.90;;;;;;4781651;30;20533;-70
2023/03/21 09:51:54;;;;;;;10.07;7.60;;;11.00;99.90;;;;;;4759644;30;20499;-66
2023/03/21 09:54:26;;;;;;;9.33;6.03;;;10.90;99.90;;;;;;4779726;30;20434;-73
2023/03/21 09:56:56;;;;;;;12.80;7.37;;;10.90;99.90;;;;;;4787464;30;20441;-73
2023/03/21 09:59:32;;;;;;;15.07;6.87;;;10.90;99.90;;;;;;4784582;29;20618;-74
2023/03/21 10:01:59;;;;;;;8.20;5.43;;;11.00;99.90;;;;;;4792888;30;20982;-72
2023/03/21 10:04:26;;;;;;;8.37;5.70;;;11.10;99.90;;;;;;4855160;29;20405;-73
2023/03/21 10:07:01;;;;;;;14.50;6.23;;;11.30;99.90;;;;;;4835590;29;20457;-74
2023/03/21 10:09:29;;;;;;;8.47;5.53;;;11.30;99.90;;;;;;4850430;29;20447;-74
